Time;durP1;ratioP1;P1;durP2;ratioP2;P2;SDS_P1;SDS_P2;PMS_P1;PMS_P2;Temp;Humidity;BMP_temperature;BMP_pressure;BME280_temperature;BME280_humidity;BME280_pressure;Samples;Min_cycle;Max_cycle;Signal;HPM_P1;HPM_P2
2022/04/01 00:01:20;;;;;;;3.38;2.42;;;20.10;57.70;;;;;;4932488;28;92504;-86
2022/04/01 00:03:45;;;;;;;4.28;2.13;;;20.10;57.80;;;;;;4933228;28;92210;-89
2022/04/01 00:06:11;;;;;;;2.88;2.30;;;20.10;57.70;;;;;;4946668;28;92356;-89
2022/04/01 00:08:44;;;;;;;2.30;2.10;;;20.10;57.80;;;;;;4947268;28;92373;-87
2022/04/01 00:11:10;;;;;;;3.55;2.22;;;20.10;57.70;;;;;;4933715;28;94162;-88
2022/04/01 00:13:35;;;;;;;3.45;2.42;;;20.10;57.70;;;;;;4934636;28;93413;-88
2022/04/01 00:16:01;;;;;;;3.00;2.10;;;20.10;57.80;;;;;;4947999;28;92291;-88
2022/04/01 00:18:26;;;;;;;3.92;2.50;;;20.00;57.80;;;;;;4933328;28;92458;-88
2022/04/01 00:20:53;;;;;;;2.47;1.98;;;20.00;57.70;;;;;;4932880;28;92793;-87
2022/04/01 00:23:19;;;;;;;2.53;2.20;;;20.00;57.60;;;;;;4948264;28;94982;-87
2022/04/01 00:25:45;;;;;;;3.60;2.15;;;20.00;57.60;;;;;;4934258;28;92618;-88
2022/04/01 00:28:11;;;;;;;3.40;2.38;;;20.00;57.50;;;;;;4948458;28;91411;-87
2022/04/01 00:30:39;;;;;;;2.28;1.98;;;20.00;57.60;;;;;;4933838;28;93050;-88
2022/04/01 00:33:05;;;;;;;2.80;2.20;;;20.00;57.40;;;;;;4932976;28;92748;-89
2022/04/01 00:35:32;;;;;;;5.20;2.60;;;20.00;57.60;;;;;;4931543;28;93184;-87
2022/04/01 00:37:58;;;;;;;2.45;1.98;;;20.00;57.50;;;;;;4931299;28;92639;-89
2022/04/01 00:40:23;;;;;;;2.45;1.80;;;20.00;57.50;;;;;;4932827;28;93139;-87
2022/04/01 00:42:49;;;;;;;2.83;2.08;;;20.00;57.50;;;;;;4946434;28;95670;-88
2022/04/01 00:45:16;;;;;;;3.05;2.10;;;20.00;57.50;;;;;;4932355;28;91985;-88
2022/04/01 00:47:42;;;;;;;4.03;2.05;;;20.00;57.40;;;;;;4932671;28;92422;-87
2022/04/01 00:50:08;;;;;;;2.70;2.00;;;20.00;57.50;;;;;;4932358;28;92944;-88
2022/04/01 00:52:37;;;;;;;3.67;2.33;;;20.00;57.30;;;;;;4947522;28;94689;-87
2022/04/01 00:55:08;;;;;;;3.75;2.30;;;20.00;57.40;;;;;;4947079;28;92890;-88
2022/04/01 00:57:35;;;;;;;3.55;2.30;;;20.00;57.40;;;;;;4929954;28;92725;-87
2022/04/01 01:00:01;;;;;;;2.42;2.00;;;19.90;57.20;;;;;;4931624;28;93931;-88
2022/04/01 01:02:26;;;;;;;2.70;2.05;;;20.00;57.30;;;;;;4946863;28;96183;-86
2022/04/01 01:04:52;;;;;;;3.25;2.10;;;19.90;57.30;;;;;;4931957;28;92890;-89
2022/04/01 01:07:18;;;;;;;3.92;2.25;;;19.90;57.20;;;;;;4931896;28;92998;-88
2022/04/01 01:09:44;;;;;;;2.63;2.20;;;20.00;57.30;;;;;;4931473;28;92716;-88
2022/04/01 01:12:11;;;;;;;2.10;1.90;;;19.90;57.30;;;;;;4932008;28;92959;-88
2022/04/01 01:14:39;;;;;;;2.78;2.20;;;19.90;57.30;;;;;;4931866;28;93053;-89
2022/04/01 01:17:07;;;;;;;1.90;1.70;;;19.90;57.50;;;;;;4932258;28;91834;-88
2022/04/01 01:19:33;;;;;;;3.35;2.03;;;19.90;57.40;;;;;;4931898;28;93251;-88
2022/04/01 01:21:59;;;;;;;2.55;1.98;;;19.90;57.30;;;;;;4931237;28;93051;-88
2022/04/01 01:24:51;;;;;;;1.85;1.65;;;19.90;57.90;;;;;;4932014;28;92940;-88
2022/04/01 01:27:17;;;;;;;2.38;1.95;;;19.80;57.30;;;;;;4929199;28;92746;-88
2022/04/01 01:29:42;;;;;;;2.08;1.73;;;19.80;57.30;;;;;;4932164;28;92816;-87
2022/04/01 01:32:11;;;;;;;2.78;1.90;;;19.90;57.40;;;;;;4932985;28;92749;-86
2022/04/01 01:34:41;;;;;;;3.10;2.30;;;19.90;57.20;;;;;;4947832;28;92881;-88
2022/04/01 01:37:10;;;;;;;2.38;2.08;;;19.80;57.10;;;;;;4932380;28;92273;-88
2022/04/01 01:39:36;;;;;;;3.05;2.35;;;19.80;57.20;;;;;;4931929;28;93162;-87
2022/04/01 01:42:01;;;;;;;2.55;1.92;;;19.80;57.10;;;;;;4931651;28;92911;-87
2022/04/01 01:44:27;;;;;;;2.67;2.25;;;19.80;56.90;;;;;;4947066;28;92124;-87
2022/04/01 01:46:53;;;;;;;2.03;1.83;;;19.80;57.00;;;;;;4931852;28;92799;-88
2022/04/01 01:49:22;;;;;;;3.42;2.28;;;19.80;57.10;;;;;;4931775;28;93451;-88
2022/04/01 01:54:43;;;;;;;2.22;1.98;;;19.80;57.00;;;;;;4934778;28;91981;-87
2022/04/01 01:57:10;;;;;;;2.92;2.15;;;19.80;56.90;;;;;;4935024;28;92617;-88
2022/04/01 01:59:36;;;;;;;3.30;2.13;;;19.80;57.00;;;;;;4934674;28;92633;-87
2022/04/01 02:02:05;;;;;;;2.22;2.03;;;19.80;57.00;;;;;;4934670;28;92493;-88
2022/04/01 02:04:32;;;;;;;2.80;1.98;;;19.80;56.80;;;;;;4936300;28;92557;-86
2022/04/01 02:06:58;;;;;;;2.67;1.83;;;19.80;56.90;;;;;;4935861;28;91977;-88
2022/04/01 02:09:24;;;;;;;1.73;1.63;;;19.80;56.90;;;;;;4935508;28;92802;-87
2022/04/01 02:11:51;;;;;;;2.30;1.85;;;19.80;57.60;;;;;;4935197;28;93148;-85
2022/04/01 02:14:17;;;;;;;2.95;1.80;;;19.80;56.90;;;;;;4934842;28;93712;-87
2022/04/01 02:16:45;;;;;;;2.47;1.95;;;19.70;57.00;;;;;;4934951;28;92512;-87
2022/04/01 02:19:12;;;;;;;2.22;1.85;;;19.70;56.80;;;;;;4934812;28;93068;-88
2022/04/01 02:21:38;;;;;;;2.25;1.85;;;19.70;56.70;;;;;;4934030;28;92864;-86
2022/04/01 02:24:13;;;;;;;2.58;1.90;;;19.70;56.80;;;;;;4935364;28;92640;-87
2022/04/01 02:26:39;;;;;;;2.10;1.85;;;19.70;56.80;;;;;;4949678;28;92208;-87
2022/04/01 02:29:05;;;;;;;2.38;2.05;;;19.70;56.90;;;;;;4950412;28;93054;-88
2022/04/01 02:31:33;;;;;;;2.83;2.15;;;19.70;56.70;;;;;;4936060;28;91770;-88
2022/04/01 02:33:59;;;;;;;2.15;1.83;;;19.70;56.60;;;;;;4937212;28;92390;-88
2022/04/01 02:36:25;;;;;;;2.22;1.80;;;19.70;56.60;;;;;;4934821;28;92385;-89
2022/04/01 02:38:50;;;;;;;2.88;2.22;;;19.70;56.60;;;;;;4934373;28;93647;-87
2022/04/01 02:41:16;;;;;;;2.92;1.98;;;19.70;56.80;;;;;;4935401;28;93578;-88
2022/04/01 02:43:42;;;;;;;2.42;1.90;;;19.70;56.80;;;;;;4937069;28;92148;-87
2022/04/01 02:46:10;;;;;;;2.20;1.70;;;19.70;56.70;;;;;;4934966;28;91952;-88
2022/04/01 02:48:36;;;;;;;1.67;1.58;;;19.70;56.70;;;;;;4935856;28;92687;-87
2022/04/01 02:51:02;;;;;;;2.20;2.00;;;19.70;56.80;;;;;;4943242;28;95319;-87
2022/04/01 02:53:28;;;;;;;1.90;1.65;;;19.60;56.60;;;;;;4936163;28;92549;-88
2022/04/01 02:55:54;;;;;;;2.67;2.20;;;19.60;56.70;;;;;;4936189;28;91693;-88
2022/04/01 02:58:20;;;;;;;2.20;1.90;;;19.60;56.60;;;;;;4950650;28;95568;-87
2022/04/01 03:00:47;;;;;;;2.30;1.92;;;19.60;56.70;;;;;;4950457;28;95065;-87
2022/04/01 03:03:21;;;;;;;2.30;1.80;;;19.60;56.70;;;;;;4950694;28;93092;-87
2022/04/01 03:05:46;;;;;;;2.35;1.98;;;19.60;56.70;;;;;;4934790;28;92600;-89
2022/04/01 03:08:13;;;;;;;2.30;1.80;;;19.60;57.30;;;;;;4935085;28;92691;-88
2022/04/01 03:10:39;;;;;;;2.10;1.88;;;19.60;56.30;;;;;;4938506;28;92878;-88
2022/04/01 03:13:09;;;;;;;3.55;1.88;;;19.60;55.80;;;;;;4934907;28;92461;-90
2022/04/01 03:15:35;;;;;;;;;;;19.60;56.30;;;;;;4935661;28;92515;-90
2022/04/01 03:18:01;;;;;;;1.90;1.70;;;19.60;56.40;;;;;;4934646;28;93210;-87
2022/04/01 03:20:29;;;;;;;3.42;1.75;;;19.60;56.20;;;;;;4933063;28;92136;-87
2022/04/01 03:22:57;;;;;;;2.15;1.70;;;19.60;56.30;;;;;;4947379;28;92794;-88
2022/04/01 03:25:23;;;;;;;2.20;1.95;;;19.60;56.50;;;;;;4945838;28;92532;-88
2022/04/01 03:27:49;;;;;;;2.00;1.80;;;19.60;56.40;;;;;;4946787;28;97008;-86
2022/04/01 03:30:16;;;;;;;3.10;1.80;;;19.60;56.50;;;;;;4934147;28;93632;-87
2022/04/01 03:32:43;;;;;;;2.28;2.00;;;19.60;56.50;;;;;;4948317;28;92509;-88
2022/04/01 03:35:13;;;;;;;2.50;2.20;;;19.60;56.60;;;;;;4946787;28;93454;-86
2022/04/01 03:37:39;;;;;;;2.40;2.10;;;19.60;56.70;;;;;;4930228;28;92562;-86
2022/04/01 03:40:11;;;;;;;2.10;1.90;;;19.60;56.90;;;;;;4930848;28;92761;-87
2022/04/01 03:42:41;;;;;;;2.88;2.00;;;19.60;57.00;;;;;;4930577;28;92628;-87
2022/04/01 03:45:07;;;;;;;2.83;2.45;;;19.60;57.00;;;;;;4930493;28;91908;-87
2022/04/01 03:47:37;;;;;;;2.47;2.10;;;19.60;57.00;;;;;;4929877;28;94769;-88
2022/04/01 03:50:04;;;;;;;2.45;1.90;;;19.60;57.00;;;;;;4931967;28;93288;-88
2022/04/01 03:52:32;;;;;;;3.38;2.42;;;19.50;57.10;;;;;;4928425;28;93680;-87
2022/04/01 03:55:03;;;;;;;3.13;2.40;;;19.50;57.10;;;;;;4931086;28;92539;-86
2022/04/01 03:57:35;;;;;;;3.72;2.08;;;19.50;57.00;;;;;;4930851;28;93224;-87
2022/04/01 04:00:02;;;;;;;4.20;2.20;;;19.50;57.60;;;;;;4928837;28;95137;-87
2022/04/01 04:02:32;;;;;;;3.05;2.13;;;19.50;57.00;;;;;;4930566;28;92481;-88
2022/04/01 04:05:07;;;;;;;2.40;2.08;;;19.50;56.90;;;;;;4930782;28;91959;-87
2022/04/01 04:07:33;;;;;;;2.20;2.00;;;19.50;56.80;;;;;;4931507;28;93178;-87
2022/04/01 04:09:59;;;;;;;1.92;1.83;;;19.50;56.80;;;;;;4931903;28;92279;-88
2022/04/01 04:12:27;;;;;;;2.13;1.92;;;19.50;56.90;;;;;;4946107;28;93013;-88
2022/04/01 04:14:53;;;;;;;2.38;2.00;;;19.50;56.70;;;;;;4945917;28;92344;-87
2022/04/01 04:17:45;;;;;;;2.30;2.10;;;19.50;56.80;;;;;;4929747;28;93368;-88
2022/04/01 04:20:38;;;;;;;2.28;1.83;;;19.50;56.90;;;;;;4929762;28;93849;-88
2022/04/01 04:23:13;;;;;;;2.20;2.00;;;19.50;56.90;;;;;;4928756;28;92676;-87
2022/04/01 04:25:39;;;;;;;1.98;1.80;;;19.50;56.80;;;;;;4944694;28;92677;-87
2022/04/01 04:28:20;;;;;;;2.88;1.90;;;19.50;56.90;;;;;;4945905;28;96654;-87
2022/04/01 04:30:50;;;;;;;2.10;1.90;;;19.50;56.70;;;;;;4930631;28;92777;-88
2022/04/01 04:33:21;;;;;;;2.08;1.70;;;19.50;56.60;;;;;;4930994;28;92468;-87
2022/04/01 04:35:59;;;;;;;2.53;1.85;;;19.40;56.70;;;;;;4930077;28;91780;-87
2022/04/01 04:38:27;;;;;;;2.85;2.25;;;19.40;56.80;;;;;;4944198;28;95667;-87
2022/04/01 04:40:53;;;;;;;2.30;2.10;;;19.40;56.60;;;;;;4929354;28;92871;-87
2022/04/01 04:43:23;;;;;;;4.05;2.17;;;19.40;56.80;;;;;;4929667;28;93777;-88
2022/04/01 04:45:52;;;;;;;2.10;1.90;;;19.50;56.80;;;;;;4927864;28;93024;-88
2022/04/01 04:48:18;;;;;;;2.17;1.98;;;19.40;56.60;;;;;;4931382;28;93000;-87
2022/04/01 04:50:46;;;;;;;3.47;2.00;;;19.40;56.60;;;;;;4932160;28;92828;-89
2022/04/01 04:53:14;;;;;;;3.80;1.87;;;19.50;53.80;;;;;;4946750;28;92377;-87
2022/04/01 04:55:41;;;;;;;2.33;2.08;;;19.40;54.70;;;;;;4931231;28;92376;-89
2022/04/01 04:58:10;;;;;;;2.60;2.05;;;19.40;55.40;;;;;;4946773;28;94965;-90
2022/04/01 05:00:39;;;;;;;2.90;2.33;;;19.40;55.80;;;;;;4931908;28;92409;-89
2022/04/01 05:03:35;;;;;;;2.28;2.08;;;19.40;56.50;;;;;;4932076;28;92117;-87
2022/04/01 05:06:03;;;;;;;3.47;1.85;;;19.40;55.90;;;;;;4932256;28;92274;-89
2022/04/01 05:08:48;;;;;;;2.72;1.98;;;19.40;55.80;;;;;;4947388;28;97511;-88
2022/04/01 05:11:28;;;;;;;2.17;1.98;;;19.40;55.70;;;;;;4947048;28;94406;-89
2022/04/01 05:13:57;;;;;;;2.20;1.98;;;19.30;55.70;;;;;;4933256;28;92648;-90
2022/04/01 05:17:01;;;;;;;4.20;2.05;;;19.30;55.60;;;;;;4932871;28;93034;-87
2022/04/01 05:19:28;;;;;;;3.10;2.33;;;19.40;55.70;;;;;;4933075;28;93237;-88
2022/04/01 05:22:08;;;;;;;2.10;1.75;;;19.40;55.50;;;;;;4946887;28;93083;-89
2022/04/01 05:24:46;;;;;;;2.20;2.00;;;19.30;55.50;;;;;;4947040;28;92557;-89
2022/04/01 05:27:25;;;;;;;2.63;2.08;;;19.40;55.50;;;;;;4932608;28;91687;-89
2022/04/01 05:30:02;;;;;;;2.30;2.08;;;19.30;55.30;;;;;;4931475;28;95401;-89
2022/04/01 05:32:33;;;;;;;2.50;2.30;;;19.30;55.40;;;;;;4932508;28;92785;-89
2022/04/01 05:35:00;;;;;;;3.08;2.03;;;19.30;55.30;;;;;;4931770;28;93657;-87
2022/04/01 05:37:28;;;;;;;2.13;1.98;;;19.30;55.20;;;;;;4932984;28;92594;-88
2022/04/01 05:39:55;;;;;;;2.30;2.10;;;19.30;55.90;;;;;;4932335;28;92487;-89
2022/04/01 05:42:29;;;;;;;3.05;2.10;;;19.30;55.00;;;;;;4933220;28;92826;-88
2022/04/01 05:44:55;;;;;;;2.25;2.05;;;19.30;55.00;;;;;;4932693;28;91989;-88
2022/04/01 05:47:24;;;;;;;2.20;2.00;;;19.30;55.00;;;;;;4932302;28;91998;-89
2022/04/01 05:49:50;;;;;;;2.53;2.17;;;19.20;55.00;;;;;;4932116;28;93240;-88
2022/04/01 05:52:16;;;;;;;2.25;2.05;;;19.30;55.10;;;;;;4932017;28;92630;-90
2022/04/01 05:54:43;;;;;;;2.55;2.20;;;19.30;55.00;;;;;;4929955;28;92686;-89
2022/04/01 05:57:15;;;;;;;2.42;2.22;;;19.30;55.00;;;;;;4931166;28;93298;-87
2022/04/01 05:59:41;;;;;;;3.45;2.17;;;19.20;55.00;;;;;;4930608;28;94749;-89
2022/04/01 06:02:15;;;;;;;2.20;1.98;;;19.20;54.90;;;;;;4932140;28;92808;-89
2022/04/01 06:04:47;;;;;;;2.13;2.00;;;19.20;54.80;;;;;;4932639;28;92402;-87
2022/04/01 06:07:53;;;;;;;3.17;2.60;;;19.20;54.90;;;;;;4947102;28;91933;-88
2022/04/01 06:10:57;;;;;;;3.40;2.05;;;19.20;54.70;;;;;;4930176;28;95698;-89
2022/04/01 06:13:53;;;;;;;3.80;2.03;;;19.20;54.80;;;;;;4901516;28;92775;-89
2022/04/01 06:16:43;;;;;;;2.80;2.50;;;19.20;54.70;;;;;;4931486;28;93221;-89
2022/04/01 06:19:27;;;;;;;2.30;2.10;;;19.20;54.80;;;;;;4930235;28;91308;-89
2022/04/01 06:22:05;;;;;;;1.98;1.88;;;19.20;54.60;;;;;;4931916;28;92733;-88
2022/04/01 06:24:45;;;;;;;3.30;2.25;;;19.20;54.60;;;;;;4946239;28;95382;-89
2022/04/01 06:27:22;;;;;;;2.55;2.20;;;19.20;54.60;;;;;;4929039;28;93766;-88
2022/04/01 06:30:07;;;;;;;2.80;1.95;;;19.20;54.40;;;;;;4931160;28;92759;-89
2022/04/01 06:32:59;;;;;;;2.55;2.00;;;19.10;54.20;;;;;;4931429;28;92669;-89
2022/04/01 06:35:29;;;;;;;2.80;2.13;;;19.10;54.40;;;;;;4929975;28;92547;-89
2022/04/01 06:38:03;;;;;;;2.80;2.35;;;19.20;54.30;;;;;;4931237;28;92598;-90
2022/04/01 06:41:06;;;;;;;2.33;2.13;;;19.20;54.30;;;;;;4932854;28;92068;-89
2022/04/01 06:43:32;;;;;;;2.00;1.90;;;19.10;54.20;;;;;;4934338;28;94037;-87
2022/04/01 06:45:58;;;;;;;2.55;2.35;;;19.10;54.30;;;;;;4935035;28;91746;-88
2022/04/01 06:48:23;;;;;;;2.53;2.33;;;19.20;54.10;;;;;;4949557;28;92544;-87
2022/04/01 06:50:51;;;;;;;2.47;2.20;;;19.10;54.00;;;;;;4934330;28;92756;-88
2022/04/01 06:53:18;;;;;;;2.28;2.10;;;19.10;54.10;;;;;;4933537;28;93726;-88
2022/04/01 06:55:44;;;;;;;2.20;2.00;;;19.10;54.10;;;;;;4934867;28;93790;-87
2022/04/01 06:58:11;;;;;;;2.17;1.80;;;19.10;54.10;;;;;;4935380;28;92724;-89
2022/04/01 07:00:41;;;;;;;2.10;2.00;;;19.10;54.10;;;;;;4934610;28;92705;-88
2022/04/01 07:03:16;;;;;;;2.63;2.42;;;19.10;54.00;;;;;;4934892;28;92268;-88
2022/04/01 07:05:42;;;;;;;2.35;2.15;;;19.10;53.80;;;;;;4932453;28;95087;-88
2022/04/01 07:08:08;;;;;;;2.47;2.28;;;19.10;54.10;;;;;;4934377;28;93796;-87
2022/04/01 07:10:34;;;;;;;2.63;2.30;;;19.10;53.80;;;;;;4934662;28;91867;-87
2022/04/01 07:13:00;;;;;;;2.58;2.35;;;19.10;53.90;;;;;;4934497;28;92940;-87
2022/04/01 07:15:26;;;;;;;2.53;2.33;;;19.10;53.80;;;;;;4948976;28;95608;-88
2022/04/01 07:17:52;;;;;;;2.50;2.30;;;19.00;54.30;;;;;;4934619;28;92924;-87
2022/04/01 07:20:20;;;;;;;11.25;2.45;;;19.10;53.90;;;;;;4948531;28;92164;-86
2022/04/01 07:22:46;;;;;;;8.30;2.67;;;19.10;53.90;;;;;;4929852;28;95866;-86
2022/04/01 07:25:12;;;;;;;7.63;3.10;;;19.10;53.70;;;;;;4948821;28;95560;-87
2022/04/01 07:27:38;;;;;;;4.13;2.47;;;19.10;53.60;;;;;;4931820;28;92456;-87
2022/04/01 07:30:08;;;;;;;6.00;2.80;;;19.10;53.70;;;;;;4932560;28;92471;-85
2022/04/01 07:32:35;;;;;;;3.90;2.78;;;19.10;53.70;;;;;;4931680;28;92923;-86
2022/04/01 07:35:03;;;;;;;7.35;3.00;;;19.00;53.90;;;;;;4930548;28;92756;-88
2022/04/01 07:37:30;;;;;;;8.98;2.72;;;19.10;54.30;;;;;;4933325;28;93274;-84
2022/04/01 07:40:05;;;;;;;15.38;3.40;;;19.10;54.20;;;;;;4932481;28;92244;-86
2022/04/01 07:42:31;;;;;;;9.98;3.20;;;19.10;54.30;;;;;;4930721;28;94074;-88
2022/04/01 07:44:57;;;;;;;9.18;3.45;;;19.10;54.20;;;;;;4947556;28;96187;-87
2022/04/01 07:47:24;;;;;;;10.18;3.92;;;19.10;54.40;;;;;;4932720;28;92591;-87
2022/04/01 07:49:50;;;;;;;22.23;5.05;;;19.10;54.70;;;;;;4931925;28;92996;-87
2022/04/01 07:52:18;;;;;;;17.98;5.47;;;19.10;54.80;;;;;;4946284;28;94112;-88
2022/04/01 07:54:44;;;;;;;18.58;5.18;;;19.10;54.80;;;;;;4944632;28;95608;-86
2022/04/01 07:57:12;;;;;;;27.58;6.30;;;19.10;54.80;;;;;;4930410;28;92862;-86
2022/04/01 07:59:37;;;;;;;20.92;6.47;;;19.10;54.80;;;;;;4929679;28;92273;-86
2022/04/01 08:02:05;;;;;;;30.92;6.90;;;19.10;54.90;;;;;;4929180;28;93045;-85
2022/04/01 08:04:31;;;;;;;18.20;6.13;;;19.00;55.00;;;;;;4929246;28;92913;-86
2022/04/01 08:06:57;;;;;;;26.73;7.10;;;19.00;54.90;;;;;;4930054;28;93524;-85
2022/04/01 08:09:24;;;;;;;27.25;7.85;;;19.00;54.90;;;;;;4943020;28;92698;-87
2022/04/01 08:11:50;;;;;;;27.30;7.18;;;19.00;54.90;;;;;;4930523;28;93093;-87
2022/04/01 08:14:17;;;;;;;23.45;7.05;;;19.00;54.90;;;;;;4929371;28;92632;-87
2022/04/01 08:16:43;;;;;;;28.40;7.72;;;19.00;55.10;;;;;;4930460;28;92760;-85
2022/04/01 08:19:09;;;;;;;24.58;7.00;;;19.00;55.00;;;;;;4929932;28;92231;-86
2022/04/01 08:21:35;;;;;;;19.83;6.50;;;19.00;54.90;;;;;;4944825;28;95391;-87
2022/04/01 08:24:07;;;;;;;18.33;6.18;;;19.00;54.90;;;;;;4944461;28;96367;-88
2022/04/01 08:26:33;;;;;;;25.65;6.53;;;19.00;55.00;;;;;;4936750;28;92598;-86
2022/04/01 08:28:58;;;;;;;21.58;6.50;;;19.00;55.00;;;;;;4929201;28;92833;-86
2022/04/01 08:31:24;;;;;;;21.55;6.70;;;19.00;54.90;;;;;;4929948;28;93746;-87
2022/04/01 08:33:50;;;;;;;20.95;6.88;;;19.00;54.90;;;;;;4930364;28;93419;-86
2022/04/01 08:36:17;;;;;;;27.50;7.20;;;19.00;54.70;;;;;;4945990;28;92743;-88
2022/04/01 08:38:43;;;;;;;20.58;7.35;;;18.90;54.80;;;;;;4930745;28;92763;-86
2022/04/01 08:41:10;;;;;;;24.60;6.63;;;18.90;54.80;;;;;;4930850;28;92691;-87
2022/04/01 08:43:37;;;;;;;19.75;6.65;;;19.00;54.90;;;;;;4931119;28;92850;-86
2022/04/01 08:46:08;;;;;;;21.30;6.30;;;18.90;54.80;;;;;;4931027;28;92419;-87
2022/04/01 08:48:35;;;;;;;15.48;6.72;;;18.90;54.90;;;;;;4930882;28;91527;-86
2022/04/01 08:51:01;;;;;;;23.80;7.45;;;18.90;54.90;;;;;;4944770;28;95863;-87
2022/04/01 08:53:27;;;;;;;16.05;6.85;;;18.90;54.80;;;;;;4945045;28;95473;-86
2022/04/01 08:55:55;;;;;;;20.25;7.90;;;18.90;54.60;;;;;;4929978;28;93794;-86
2022/04/01 08:58:33;;;;;;;18.92;6.38;;;18.90;54.80;;;;;;4930537;28;92659;-87
2022/04/01 09:01:00;;;;;;;23.17;6.38;;;18.90;54.70;;;;;;4929640;28;92773;-87
2022/04/01 09:03:28;;;;;;;24.33;6.80;;;18.90;54.60;;;;;;4928915;28;92352;-86
2022/04/01 09:05:57;;;;;;;20.77;7.07;;;18.90;54.80;;;;;;4944256;28;92846;-86
2022/04/01 09:08:24;;;;;;;18.38;6.72;;;18.90;54.50;;;;;;4942971;28;92723;-87
2022/04/01 09:11:17;;;;;;;22.02;7.32;;;18.90;54.70;;;;;;4928812;28;92569;-85
2022/04/01 09:13:42;;;;;;;21.38;6.53;;;18.90;54.60;;;;;;4929740;28;92583;-87
2022/04/01 09:16:08;;;;;;;20.92;7.20;;;18.90;54.70;;;;;;4929812;28;92519;-86
2022/04/01 09:18:43;;;;;;;17.83;6.90;;;18.90;54.70;;;;;;4944361;28;93022;-87
2022/04/01 09:21:13;;;;;;;18.58;6.45;;;18.90;54.60;;;;;;4929513;28;93782;-86
2022/04/01 09:23:40;;;;;;;15.90;6.20;;;18.90;54.70;;;;;;4929699;28;93372;-87
2022/04/01 09:26:06;;;;;;;21.17;6.75;;;18.90;54.70;;;;;;4930159;28;92354;-86
2022/04/01 09:28:33;;;;;;;17.55;6.68;;;18.90;54.40;;;;;;4921106;28;92470;-87
2022/04/01 09:31:09;;;;;;;18.25;6.53;;;18.90;54.40;;;;;;4933051;28;94280;-87
2022/04/01 09:33:46;;;;;;;18.20;6.93;;;18.90;54.40;;;;;;4944260;28;93914;-86
2022/04/01 09:36:18;;;;;;;13.88;5.95;;;18.90;54.60;;;;;;4938841;28;92453;-86
2022/04/01 09:39:06;;;;;;;14.38;6.20;;;18.90;54.60;;;;;;4930147;28;91523;-87
2022/04/01 09:41:41;;;;;;;17.05;6.68;;;18.90;54.50;;;;;;4929558;28;92933;-86
2022/04/01 09:44:25;;;;;;;16.27;6.57;;;18.80;54.20;;;;;;4928146;28;94846;-87
2022/04/01 09:46:53;;;;;;;19.55;6.55;;;18.80;54.40;;;;;;4929686;28;93080;-86
2022/04/01 09:49:44;;;;;;;14.38;6.00;;;18.80;54.20;;;;;;4929595;28;92903;-86
2022/04/01 09:52:12;;;;;;;14.52;5.95;;;18.80;54.30;;;;;;4929810;28;93227;-86
2022/04/01 09:54:45;;;;;;;14.10;6.85;;;18.80;54.40;;;;;;4930439;28;92540;-87
2022/04/01 09:57:12;;;;;;;16.15;6.25;;;18.80;54.30;;;;;;4929768;28;92550;-86
2022/04/01 09:59:37;;;;;;;19.13;7.28;;;18.80;54.40;;;;;;4929511;28;92162;-87
2022/04/01 10:02:03;;;;;;;18.48;6.40;;;18.80;54.40;;;;;;4929060;28;95750;-86
2022/04/01 10:04:29;;;;;;;15.45;6.57;;;18.80;54.40;;;;;;4930556;28;92982;-84
2022/04/01 10:06:55;;;;;;;13.63;5.90;;;18.80;54.40;;;;;;4939633;28;93267;-86
2022/04/01 10:09:22;;;;;;;16.30;6.63;;;18.80;54.20;;;;;;4926670;28;92787;-87
2022/04/01 10:11:50;;;;;;;16.58;5.53;;;18.80;54.40;;;;;;4927550;28;94051;-86
2022/04/01 10:14:18;;;;;;;13.77;6.13;;;18.80;54.10;;;;;;4950603;28;96080;-87
2022/04/01 10:16:45;;;;;;;12.52;5.68;;;18.80;54.10;;;;;;4934524;28;92925;-85
2022/04/01 10:19:22;;;;;;;13.57;5.72;;;18.80;54.30;;;;;;4948266;28;92690;-88
2022/04/01 10:21:48;;;;;;;19.23;6.45;;;18.90;54.60;;;;;;4930478;28;95241;-87
2022/04/01 10:24:13;;;;;;;16.00;5.60;;;18.90;54.90;;;;;;4931654;28;93448;-87
2022/04/01 10:26:54;;;;;;;15.75;5.80;;;19.00;55.10;;;;;;4947586;28;92947;-87
2022/04/01 10:29:21;;;;;;;11.90;5.60;;;19.00;54.90;;;;;;4947516;28;91305;-87
2022/04/01 10:32:26;;;;;;;15.23;5.72;;;19.10;55.10;;;;;;4946531;28;95951;-86
2022/04/01 10:34:54;;;;;;;17.77;6.00;;;19.20;55.20;;;;;;4922781;28;94395;-87
2022/04/01 10:37:25;;;;;;;18.58;6.18;;;19.20;55.20;;;;;;4948650;28;93435;-86
2022/04/01 10:39:55;;;;;;;13.63;5.45;;;19.20;55.30;;;;;;4933016;28;92415;-87
2022/04/01 10:42:38;;;;;;;13.30;5.13;;;19.30;55.50;;;;;;4931239;28;93009;-85
2022/04/01 10:45:20;;;;;;;14.45;5.35;;;19.30;55.70;;;;;;4930954;28;92963;-88
2022/04/01 10:53:38;;;;;;;14.40;4.88;;;19.40;55.60;;;;;;4931384;28;93046;-86
2022/04/01 10:56:25;;;;;;;13.55;5.10;;;19.50;56.10;;;;;;4924583;28;93185;-86
2022/04/01 10:59:04;;;;;;;14.52;5.20;;;19.50;56.10;;;;;;4945347;28;92387;-86
2022/04/01 11:01:31;;;;;;;11.77;4.88;;;19.50;56.10;;;;;;4927886;28;92906;-85
2022/04/01 11:04:12;;;;;;;13.27;5.57;;;19.60;56.20;;;;;;4929566;28;93860;-85
2022/04/01 11:07:01;;;;;;;9.55;4.10;;;19.60;56.20;;;;;;4929899;28;93581;-86
2022/04/01 11:09:46;;;;;;;13.00;4.97;;;19.60;56.90;;;;;;4930960;28;92308;-87
2022/04/01 11:12:14;;;;;;;13.98;4.75;;;19.60;56.70;;;;;;4923480;28;92203;-86
2022/04/01 11:17:51;;;;;;;13.02;4.88;;;19.60;56.80;;;;;;4931112;28;92454;-86
2022/04/01 11:20:21;;;;;;;8.68;4.32;;;19.60;56.40;;;;;;4929314;28;92493;-86
2022/04/01 11:22:52;;;;;;;10.43;4.43;;;19.60;56.40;;;;;;4930729;28;91903;-87
2022/04/01 11:25:33;;;;;;;12.18;4.22;;;19.60;56.40;;;;;;4910550;28;92559;-87
2022/04/01 11:27:59;;;;;;;12.77;4.50;;;19.60;56.60;;;;;;4945194;28;95630;-88
2022/04/01 11:30:32;;;;;;;9.05;3.83;;;19.60;56.60;;;;;;4945480;28;93319;-86
2022/04/01 11:33:08;;;;;;;11.20;4.75;;;19.60;56.60;;;;;;4930724;28;92594;-87
2022/04/01 11:35:36;;;;;;;9.27;4.82;;;19.60;57.40;;;;;;4930479;28;94521;-88
2022/04/01 11:38:03;;;;;;;11.40;4.90;;;19.60;56.80;;;;;;4932224;28;92549;-87
2022/04/01 11:40:30;;;;;;;14.43;4.60;;;19.60;57.10;;;;;;4931028;28;92794;-87
2022/04/01 11:43:04;;;;;;;14.65;4.78;;;19.60;56.80;;;;;;4929484;28;92851;-87
2022/04/01 11:45:32;;;;;;;13.85;4.38;;;19.60;56.90;;;;;;4928523;28;92705;-86
2022/04/01 11:47:57;;;;;;;7.97;4.10;;;19.70;56.80;;;;;;4928926;28;92778;-87
2022/04/01 11:50:24;;;;;;;12.48;4.55;;;19.70;56.30;;;;;;4945203;28;92787;-87
2022/04/01 11:52:57;;;;;;;14.23;4.53;;;19.60;55.90;;;;;;4929547;28;92570;-86
2022/04/01 11:55:27;;;;;;;13.30;5.28;;;19.70;56.20;;;;;;4937332;28;96566;-86
2022/04/01 11:57:55;;;;;;;14.75;4.75;;;19.70;55.70;;;;;;4943838;28;96441;-86
2022/04/01 12:00:24;;;;;;;12.27;4.03;;;19.70;55.90;;;;;;4944085;28;92927;-86
2022/04/01 12:02:51;;;;;;;;;;;19.70;56.10;;;;;;4926803;28;92755;-86
2022/04/01 12:05:17;;;;;;;15.35;3.90;;;19.70;56.80;;;;;;4944052;28;95753;-86
2022/04/01 12:10:36;;;;;;;10.98;4.05;;;19.70;56.90;;;;;;4930197;28;92301;-85
2022/04/01 12:13:05;;;;;;;9.38;3.78;;;19.70;56.30;;;;;;4930337;28;91682;-88
2022/04/01 12:15:37;;;;;;;8.35;4.25;;;19.70;56.50;;;;;;4945224;28;96835;-85
2022/04/01 12:18:05;;;;;;;10.10;4.25;;;19.70;56.50;;;;;;4927490;28;95049;-85
2022/04/01 12:20:36;;;;;;;11.40;4.53;;;19.70;57.20;;;;;;4929842;28;93557;-85
2022/04/01 12:23:02;;;;;;;13.07;4.60;;;19.70;57.80;;;;;;4929471;28;92386;-86
2022/04/01 12:25:30;;;;;;;9.25;4.40;;;19.70;58.70;;;;;;4929829;28;92965;-85
2022/04/01 12:28:07;;;;;;;9.95;4.18;;;19.70;61.40;;;;;;4943524;28;95489;-86
2022/04/01 12:30:42;;;;;;;10.18;4.22;;;19.70;60.90;;;;;;4929211;28;92931;-86
2022/04/01 12:33:25;;;;;;;9.38;4.32;;;19.70;60.90;;;;;;4930062;28;92077;-87
2022/04/01 12:36:01;;;;;;;10.75;3.83;;;19.70;60.40;;;;;;4944320;28;95986;-86
2022/04/01 12:38:29;;;;;;;8.63;3.78;;;19.70;59.00;;;;;;4930093;28;92284;-87
2022/04/01 12:41:03;;;;;;;14.40;4.45;;;19.70;59.20;;;;;;4930039;28;92715;-86
2022/04/01 12:43:33;;;;;;;13.35;4.13;;;19.70;60.80;;;;;;4944040;28;93154;-86
2022/04/01 12:46:08;;;;;;;8.25;4.18;;;19.70;63.50;;;;;;4929002;28;94108;-87
2022/04/01 12:48:49;;;;;;;12.20;4.05;;;19.80;60.70;;;;;;4929928;28;93772;-88
2022/04/01 12:51:16;;;;;;;9.55;4.75;;;19.80;60.70;;;;;;4928785;28;92391;-87
2022/04/01 12:53:57;;;;;;;12.32;4.78;;;19.80;57.40;;;;;;4944818;28;92468;-87
2022/04/01 12:56:48;;;;;;;9.05;4.15;;;19.80;58.80;;;;;;4928518;28;93023;-88
2022/04/01 12:59:17;;;;;;;16.02;4.25;;;19.80;59.50;;;;;;4929566;28;96215;-87
2022/04/01 13:02:06;;;;;;;11.50;4.80;;;19.80;59.40;;;;;;4929340;28;92184;-84
2022/04/01 13:04:53;;;;;;;14.27;5.88;;;19.80;57.00;;;;;;4929449;28;92380;-86
2022/04/01 13:07:22;;;;;;;16.52;5.53;;;19.80;59.30;;;;;;4929029;28;93029;-85
2022/04/01 13:09:57;;;;;;;23.33;5.90;;;19.80;59.60;;;;;;4928109;28;92484;-85
2022/04/01 13:12:32;;;;;;;14.05;5.65;;;19.90;60.10;;;;;;4928025;28;93218;-82
2022/04/01 13:15:04;;;;;;;14.73;5.13;;;19.90;60.50;;;;;;4928676;28;92643;-81